sensor_id;sensor_type;location;lat;lon;timestamp;P1;durP1;ratioP1;P2;durP2;ratioP2
20140;SDS011;10231;47.702;9.826;2023-01-16T00:01:12;1.20;;;1.10;;
20140;SDS011;10231;47.702;9.826;2023-01-16T00:03:38;1.80;;;1.30;;
20140;SDS011;10231;47.702;9.826;2023-01-16T00:06:03;1.67;;;1.13;;
20140;SDS011;10231;47.702;9.826;2023-01-16T00:08:30;1.73;;;1.63;;
20140;SDS011;10231;47.702;9.826;2023-01-16T00:10:55;1.63;;;1.53;;
20140;SDS011;10231;47.702;9.826;2023-01-16T00:13:21;1.53;;;1.43;;
20140;SDS011;10231;47.702;9.826;2023-01-16T00:15:47;1.67;;;1.43;;
20140;SDS011;10231;47.702;9.826;2023-01-16T00:18:14;1.47;;;1.00;;
20140;SDS011;10231;47.702;9.826;2023-01-16T00:20:40;2.03;;;1.33;;
20140;SDS011;10231;47.702;9.826;2023-01-16T00:23:06;1.53;;;1.13;;
20140;SDS011;10231;47.702;9.826;2023-01-16T00:25:31;1.83;;;1.30;;
20140;SDS011;10231;47.702;9.826;2023-01-16T00:27:57;1.50;;;1.40;;
20140;SDS011;10231;47.702;9.826;2023-01-16T00:30:22;1.33;;;1.20;;
20140;SDS011;10231;47.702;9.826;2023-01-16T00:32:49;1.90;;;1.50;;
20140;SDS011;10231;47.702;9.826;2023-01-16T00:35:15;1.50;;;1.40;;
20140;SDS011;10231;47.702;9.826;2023-01-16T00:37:40;2.90;;;1.60;;
20140;SDS011;10231;47.702;9.826;2023-01-16T00:40:06;2.07;;;1.90;;
20140;SDS011;10231;47.702;9.826;2023-01-16T00:42:32;1.80;;;1.70;;
20140;SDS011;10231;47.702;9.826;2023-01-16T00:44:57;2.93;;;1.87;;
20140;SDS011;10231;47.702;9.826;2023-01-16T00:47:23;1.93;;;1.83;;
20140;SDS011;10231;47.702;9.826;2023-01-16T00:49:49;2.10;;;2.00;;
20140;SDS011;10231;47.702;9.826;2023-01-16T00:52:14;1.83;;;1.73;;
20140;SDS011;10231;47.702;9.826;2023-01-16T00:54:40;1.70;;;1.60;;
20140;SDS011;10231;47.702;9.826;2023-01-16T00:57:05;3.10;;;2.80;;
20140;SDS011;10231;47.702;9.826;2023-01-16T00:59:31;3.67;;;3.00;;
20140;SDS011;10231;47.702;9.826;2023-01-16T01:01:56;2.97;;;2.43;;
20140;SDS011;10231;47.702;9.826;2023-01-16T01:04:22;2.50;;;2.40;;
20140;SDS011;10231;47.702;9.826;2023-01-16T01:06:47;1.60;;;1.40;;
20140;SDS011;10231;47.702;9.826;2023-01-16T01:09:13;2.57;;;2.00;;
20140;SDS011;10231;47.702;9.826;2023-01-16T01:11:38;1.50;;;1.40;;
20140;SDS011;10231;47.702;9.826;2023-01-16T01:14:04;2.20;;;1.73;;
20140;SDS011;10231;47.702;9.826;2023-01-16T01:16:29;1.90;;;1.43;;
20140;SDS011;10231;47.702;9.826;2023-01-16T01:18:55;1.40;;;1.30;;
20140;SDS011;10231;47.702;9.826;2023-01-16T01:21:21;1.90;;;1.30;;
20140;SDS011;10231;47.702;9.826;2023-01-16T01:23:46;1.50;;;1.40;;
20140;SDS011;10231;47.702;9.826;2023-01-16T01:26:13;2.03;;;1.50;;
20140;SDS011;10231;47.702;9.826;2023-01-16T01:28:40;1.83;;;1.60;;
20140;SDS011;10231;47.702;9.826;2023-01-16T01:31:06;1.70;;;1.60;;
20140;SDS011;10231;47.702;9.826;2023-01-16T01:33:34;1.60;;;1.50;;
20140;SDS011;10231;47.702;9.826;2023-01-16T01:36:00;1.73;;;1.70;;
20140;SDS011;10231;47.702;9.826;2023-01-16T01:38:26;1.67;;;1.57;;
20140;SDS011;10231;47.702;9.826;2023-01-16T01:40:52;3.83;;;1.73;;
20140;SDS011;10231;47.702;9.826;2023-01-16T01:43:18;1.80;;;1.67;;
20140;SDS011;10231;47.702;9.826;2023-01-16T01:45:46;1.67;;;1.60;;
20140;SDS011;10231;47.702;9.826;2023-01-16T01:48:24;1.60;;;1.50;;
20140;SDS011;10231;47.702;9.826;2023-01-16T01:50:59;2.20;;;1.90;;
20140;SDS011;10231;47.702;9.826;2023-01-16T01:53:53;1.70;;;1.60;;
20140;SDS011;10231;47.702;9.826;2023-01-16T01:59:02;2.33;;;2.13;;
20140;SDS011;10231;47.702;9.826;2023-01-16T02:01:32;2.10;;;1.90;;
20140;SDS011;10231;47.702;9.826;2023-01-16T02:04:00;1.77;;;1.67;;
20140;SDS011;10231;47.702;9.826;2023-01-16T02:06:30;2.20;;;1.93;;
20140;SDS011;10231;47.702;9.826;2023-01-16T02:09:02;2.43;;;1.87;;
20140;SDS011;10231;47.702;9.826;2023-01-16T02:11:36;2.13;;;1.93;;
20140;SDS011;10231;47.702;9.826;2023-01-16T02:14:08;1.77;;;1.67;;
20140;SDS011;10231;47.702;9.826;2023-01-16T02:16:36;2.17;;;2.07;;
20140;SDS011;10231;47.702;9.826;2023-01-16T02:19:28;1.63;;;1.37;;
20140;SDS011;10231;47.702;9.826;2023-01-16T02:22:14;1.47;;;1.37;;
20140;SDS011;10231;47.702;9.826;2023-01-16T02:30:29;0.90;;;0.80;;
20140;SDS011;10231;47.702;9.826;2023-01-16T02:33:01;1.60;;;1.53;;
20140;SDS011;10231;47.702;9.826;2023-01-16T02:38:21;1.37;;;1.27;;
20140;SDS011;10231;47.702;9.826;2023-01-16T02:41:24;1.20;;;1.10;;
20140;SDS011;10231;47.702;9.826;2023-01-16T02:46:57;1.67;;;1.50;;
20140;SDS011;10231;47.702;9.826;2023-01-16T02:49:30;1.50;;;1.50;;
20140;SDS011;10231;47.702;9.826;2023-01-16T02:52:15;1.53;;;1.43;;
20140;SDS011;10231;47.702;9.826;2023-01-16T02:55:01;1.67;;;1.27;;
20140;SDS011;10231;47.702;9.826;2023-01-16T02:57:34;2.20;;;1.00;;
20140;SDS011;10231;47.702;9.826;2023-01-16T03:00:04;1.20;;;1.20;;
20140;SDS011;10231;47.702;9.826;2023-01-16T03:02:32;1.37;;;1.30;;
20140;SDS011;10231;47.702;9.826;2023-01-16T03:04:57;1.77;;;1.60;;
20140;SDS011;10231;47.702;9.826;2023-01-16T03:10:19;1.13;;;1.13;;
20140;SDS011;10231;47.702;9.826;2023-01-16T03:18:35;1.40;;;1.30;;
20140;SDS011;10231;47.702;9.826;2023-01-16T03:23:56;1.27;;;1.10;;
20140;SDS011;10231;47.702;9.826;2023-01-16T03:26:36;1.30;;;1.30;;
20140;SDS011;10231;47.702;9.826;2023-01-16T03:37:47;1.23;;;1.13;;
20140;SDS011;10231;47.702;9.826;2023-01-16T03:40:17;1.13;;;1.03;;
20140;SDS011;10231;47.702;9.826;2023-01-16T03:45:40;1.20;;;1.10;;
20140;SDS011;10231;47.702;9.826;2023-01-16T03:48:30;1.00;;;1.00;;
20140;SDS011;10231;47.702;9.826;2023-01-16T03:51:24;0.90;;;0.90;;
20140;SDS011;10231;47.702;9.826;2023-01-16T03:56:50;1.60;;;1.50;;
20140;SDS011;10231;47.702;9.826;2023-01-16T03:59:19;1.47;;;1.43;;
20140;SDS011;10231;47.702;9.826;2023-01-16T04:04:28;1.23;;;1.20;;
20140;SDS011;10231;47.702;9.826;2023-01-16T04:07:01;1.57;;;1.47;;
20140;SDS011;10231;47.702;9.826;2023-01-16T04:09:45;1.03;;;1.03;;
20140;SDS011;10231;47.702;9.826;2023-01-16T04:12:19;1.30;;;1.30;;
20140;SDS011;10231;47.702;9.826;2023-01-16T04:14:49;1.23;;;1.13;;
20140;SDS011;10231;47.702;9.826;2023-01-16T04:17:19;1.50;;;1.40;;
20140;SDS011;10231;47.702;9.826;2023-01-16T04:19:45;1.37;;;1.30;;
20140;SDS011;10231;47.702;9.826;2023-01-16T04:22:17;1.10;;;1.10;;
20140;SDS011;10231;47.702;9.826;2023-01-16T04:24:51;1.30;;;1.20;;
20140;SDS011;10231;47.702;9.826;2023-01-16T04:27:19;0.87;;;0.87;;
20140;SDS011;10231;47.702;9.826;2023-01-16T04:29:45;1.00;;;1.00;;
20140;SDS011;10231;47.702;9.826;2023-01-16T04:32:11;1.47;;;1.03;;
20140;SDS011;10231;47.702;9.826;2023-01-16T04:34:37;1.80;;;1.30;;
20140;SDS011;10231;47.702;9.826;2023-01-16T04:37:02;1.20;;;1.20;;
20140;SDS011;10231;47.702;9.826;2023-01-16T04:39:28;1.17;;;1.17;;
20140;SDS011;10231;47.702;9.826;2023-01-16T04:41:54;1.10;;;1.10;;
20140;SDS011;10231;47.702;9.826;2023-01-16T04:44:19;0.80;;;0.80;;
20140;SDS011;10231;47.702;9.826;2023-01-16T04:46:45;1.00;;;1.00;;
20140;SDS011;10231;47.702;9.826;2023-01-16T04:49:10;0.80;;;0.80;;
20140;SDS011;10231;47.702;9.826;2023-01-16T04:51:36;1.10;;;1.10;;
20140;SDS011;10231;47.702;9.826;2023-01-16T04:54:06;3.67;;;2.23;;
20140;SDS011;10231;47.702;9.826;2023-01-16T04:56:32;1.67;;;1.57;;
20140;SDS011;10231;47.702;9.826;2023-01-16T04:58:59;1.20;;;1.20;;
20140;SDS011;10231;47.702;9.826;2023-01-16T05:01:24;1.03;;;1.03;;
20140;SDS011;10231;47.702;9.826;2023-01-16T05:03:50;1.97;;;1.83;;
20140;SDS011;10231;47.702;9.826;2023-01-16T05:06:16;2.37;;;1.60;;
20140;SDS011;10231;47.702;9.826;2023-01-16T05:08:42;1.80;;;1.70;;
20140;SDS011;10231;47.702;9.826;2023-01-16T05:11:08;1.57;;;1.50;;
20140;SDS011;10231;47.702;9.826;2023-01-16T05:13:33;0.97;;;0.97;;
20140;SDS011;10231;47.702;9.826;2023-01-16T05:15:59;3.10;;;1.07;;
20140;SDS011;10231;47.702;9.826;2023-01-16T05:18:25;2.13;;;1.00;;
20140;SDS011;10231;47.702;9.826;2023-01-16T05:20:51;1.17;;;1.10;;
20140;SDS011;10231;47.702;9.826;2023-01-16T05:23:16;0.87;;;0.87;;
20140;SDS011;10231;47.702;9.826;2023-01-16T05:25:42;2.33;;;1.70;;
20140;SDS011;10231;47.702;9.826;2023-01-16T05:28:08;1.00;;;1.00;;
20140;SDS011;10231;47.702;9.826;2023-01-16T05:30:33;1.20;;;1.07;;
20140;SDS011;10231;47.702;9.826;2023-01-16T05:32:59;1.03;;;1.00;;
20140;SDS011;10231;47.702;9.826;2023-01-16T05:35:26;1.40;;;1.30;;
20140;SDS011;10231;47.702;9.826;2023-01-16T05:37:52;1.23;;;1.20;;
20140;SDS011;10231;47.702;9.826;2023-01-16T05:40:17;1.63;;;1.13;;
20140;SDS011;10231;47.702;9.826;2023-01-16T05:42:43;1.30;;;1.20;;
20140;SDS011;10231;47.702;9.826;2023-01-16T05:45:09;1.20;;;0.80;;
20140;SDS011;10231;47.702;9.826;2023-01-16T05:47:35;1.43;;;1.33;;
20140;SDS011;10231;47.702;9.826;2023-01-16T05:50:01;1.40;;;1.40;;
20140;SDS011;10231;47.702;9.826;2023-01-16T05:52:27;1.07;;;1.07;;
20140;SDS011;10231;47.702;9.826;2023-01-16T05:54:53;1.83;;;1.13;;
20140;SDS011;10231;47.702;9.826;2023-01-16T05:57:19;1.23;;;1.23;;
20140;SDS011;10231;47.702;9.826;2023-01-16T05:59:51;1.07;;;1.00;;
20140;SDS011;10231;47.702;9.826;2023-01-16T06:02:18;2.00;;;1.10;;
20140;SDS011;10231;47.702;9.826;2023-01-16T06:04:45;1.10;;;1.10;;
20140;SDS011;10231;47.702;9.826;2023-01-16T06:07:11;1.50;;;1.40;;
20140;SDS011;10231;47.702;9.826;2023-01-16T06:09:37;2.13;;;1.43;;
20140;SDS011;10231;47.702;9.826;2023-01-16T06:12:03;1.70;;;1.60;;
20140;SDS011;10231;47.702;9.826;2023-01-16T06:14:29;1.80;;;1.63;;
20140;SDS011;10231;47.702;9.826;2023-01-16T06:16:55;1.13;;;1.10;;
20140;SDS011;10231;47.702;9.826;2023-01-16T06:19:20;0.93;;;0.90;;
20140;SDS011;10231;47.702;9.826;2023-01-16T06:21:46;1.27;;;1.17;;
20140;SDS011;10231;47.702;9.826;2023-01-16T06:24:11;1.33;;;1.20;;
20140;SDS011;10231;47.702;9.826;2023-01-16T06:26:37;0.70;;;0.70;;
20140;SDS011;10231;47.702;9.826;2023-01-16T06:29:02;0.83;;;0.83;;
20140;SDS011;10231;47.702;9.826;2023-01-16T06:31:28;0.63;;;0.63;;
20140;SDS011;10231;47.702;9.826;2023-01-16T06:33:53;0.80;;;0.80;;
20140;SDS011;10231;47.702;9.826;2023-01-16T06:36:19;0.83;;;0.83;;
20140;SDS011;10231;47.702;9.826;2023-01-16T06:38:44;1.23;;;1.17;;
20140;SDS011;10231;47.702;9.826;2023-01-16T06:41:10;1.20;;;1.10;;
20140;SDS011;10231;47.702;9.826;2023-01-16T06:43:36;1.83;;;1.73;;
20140;SDS011;10231;47.702;9.826;2023-01-16T06:46:01;3.40;;;2.90;;
20140;SDS011;10231;47.702;9.826;2023-01-16T06:48:27;13.43;;;7.60;;
20140;SDS011;10231;47.702;9.826;2023-01-16T06:50:53;5.50;;;2.83;;
20140;SDS011;10231;47.702;9.826;2023-01-16T06:53:19;2.50;;;1.90;;
20140;SDS011;10231;47.702;9.826;2023-01-16T06:55:44;3.53;;;1.57;;
20140;SDS011;10231;47.702;9.826;2023-01-16T06:58:10;2.00;;;1.60;;
20140;SDS011;10231;47.702;9.826;2023-01-16T07:00:36;0.97;;;0.97;;
20140;SDS011;10231;47.702;9.826;2023-01-16T07:03:03;1.20;;;1.13;;
20140;SDS011;10231;47.702;9.826;2023-01-16T07:05:29;1.60;;;1.50;;
20140;SDS011;10231;47.702;9.826;2023-01-16T07:07:56;0.90;;;0.90;;
20140;SDS011;10231;47.702;9.826;2023-01-16T07:10:22;1.67;;;1.57;;
20140;SDS011;10231;47.702;9.826;2023-01-16T07:12:48;3.13;;;2.83;;
20140;SDS011;10231;47.702;9.826;2023-01-16T07:15:14;2.40;;;2.20;;
20140;SDS011;10231;47.702;9.826;2023-01-16T07:17:59;3.40;;;2.27;;
20140;SDS011;10231;47.702;9.826;2023-01-16T07:20:44;2.00;;;1.90;;
20140;SDS011;10231;47.702;9.826;2023-01-16T07:23:36;2.37;;;1.80;;
20140;SDS011;10231;47.702;9.826;2023-01-16T07:26:05;2.20;;;1.60;;
20140;SDS011;10231;47.702;9.826;2023-01-16T07:28:32;1.60;;;1.50;;
20140;SDS011;10231;47.702;9.826;2023-01-16T07:30:58;1.17;;;1.17;;
20140;SDS011;10231;47.702;9.826;2023-01-16T07:33:28;1.10;;;1.10;;
20140;SDS011;10231;47.702;9.826;2023-01-16T07:35:54;1.00;;;1.00;;
20140;SDS011;10231;47.702;9.826;2023-01-16T07:38:19;1.10;;;1.10;;
20140;SDS011;10231;47.702;9.826;2023-01-16T07:40:45;1.10;;;1.10;;
20140;SDS011;10231;47.702;9.826;2023-01-16T07:43:10;1.00;;;0.97;;
20140;SDS011;10231;47.702;9.826;2023-01-16T07:45:36;2.17;;;1.97;;
20140;SDS011;10231;47.702;9.826;2023-01-16T07:48:01;2.13;;;1.93;;
20140;SDS011;10231;47.702;9.826;2023-01-16T07:50:27;2.63;;;1.30;;
20140;SDS011;10231;47.702;9.826;2023-01-16T07:52:53;1.27;;;1.03;;
20140;SDS011;10231;47.702;9.826;2023-01-16T07:55:19;1.20;;;1.10;;
20140;SDS011;10231;47.702;9.826;2023-01-16T07:57:44;1.37;;;1.33;;
20140;SDS011;10231;47.702;9.826;2023-01-16T08:00:10;2.80;;;2.60;;
20140;SDS011;10231;47.702;9.826;2023-01-16T08:02:37;6.70;;;6.10;;
20140;SDS011;10231;47.702;9.826;2023-01-16T08:05:03;4.70;;;4.40;;
20140;SDS011;10231;47.702;9.826;2023-01-16T08:07:29;4.17;;;3.87;;
20140;SDS011;10231;47.702;9.826;2023-01-16T08:09:55;2.80;;;2.60;;
20140;SDS011;10231;47.702;9.826;2023-01-16T08:12:21;1.90;;;1.80;;
20140;SDS011;10231;47.702;9.826;2023-01-16T08:14:46;2.03;;;1.93;;
20140;SDS011;10231;47.702;9.826;2023-01-16T08:17:12;2.07;;;1.87;;
20140;SDS011;10231;47.702;9.826;2023-01-16T08:19:37;1.97;;;1.87;;
20140;SDS011;10231;47.702;9.826;2023-01-16T08:22:03;2.17;;;2.03;;
20140;SDS011;10231;47.702;9.826;2023-01-16T08:24:29;2.50;;;1.73;;
20140;SDS011;10231;47.702;9.826;2023-01-16T08:26:54;1.20;;;1.17;;
20140;SDS011;10231;47.702;9.826;2023-01-16T08:29:20;1.80;;;1.60;;
20140;SDS011;10231;47.702;9.826;2023-01-16T08:31:46;3.43;;;1.70;;
20140;SDS011;10231;47.702;9.826;2023-01-16T08:34:12;2.10;;;1.10;;
20140;SDS011;10231;47.702;9.826;2023-01-16T08:36:38;2.00;;;1.43;;
20140;SDS011;10231;47.702;9.826;2023-01-16T08:39:03;2.07;;;1.60;;
20140;SDS011;10231;47.702;9.826;2023-01-16T08:41:29;0.93;;;0.93;;
20140;SDS011;10231;47.702;9.826;2023-01-16T08:44:13;0.90;;;0.90;;
20140;SDS011;10231;47.702;9.826;2023-01-16T08:47:00;1.50;;;1.00;;
20140;SDS011;10231;47.702;9.826;2023-01-16T08:49:47;0.70;;;0.70;;
20140;SDS011;10231;47.702;9.826;2023-01-16T08:52:33;1.30;;;1.20;;
20140;SDS011;10231;47.702;9.826;2023-01-16T08:55:00;1.00;;;0.90;;
20140;SDS011;10231;47.702;9.826;2023-01-16T08:57:26;1.30;;;1.20;;
20140;SDS011;10231;47.702;9.826;2023-01-16T08:59:55;0.80;;;0.80;;
20140;SDS011;10231;47.702;9.826;2023-01-16T09:02:21;2.00;;;0.93;;
20140;SDS011;10231;47.702;9.826;2023-01-16T09:04:49;1.17;;;1.10;;
20140;SDS011;10231;47.702;9.826;2023-01-16T09:07:15;2.30;;;0.97;;
20140;SDS011;10231;47.702;9.826;2023-01-16T09:09:41;2.30;;;1.30;;
20140;SDS011;10231;47.702;9.826;2023-01-16T09:12:08;1.30;;;1.20;;
20140;SDS011;10231;47.702;9.826;2023-01-16T09:14:53;11.97;;;7.07;;
20140;SDS011;10231;47.702;9.826;2023-01-16T09:17:20;3.03;;;1.83;;
20140;SDS011;10231;47.702;9.826;2023-01-16T09:19:45;2.17;;;1.10;;
20140;SDS011;10231;47.702;9.826;2023-01-16T09:22:11;1.70;;;0.80;;
20140;SDS011;10231;47.702;9.826;2023-01-16T09:24:36;1.27;;;1.17;;
20140;SDS011;10231;47.702;9.826;2023-01-16T09:27:04;1.60;;;1.00;;
20140;SDS011;10231;47.702;9.826;2023-01-16T09:29:29;1.90;;;0.93;;
20140;SDS011;10231;47.702;9.826;2023-01-16T09:31:55;3.00;;;2.70;;
20140;SDS011;10231;47.702;9.826;2023-01-16T09:34:21;1.57;;;1.47;;
20140;SDS011;10231;47.702;9.826;2023-01-16T09:36:47;1.87;;;1.77;;
20140;SDS011;10231;47.702;9.826;2023-01-16T09:39:12;4.03;;;3.73;;
20140;SDS011;10231;47.702;9.826;2023-01-16T09:44:47;1.40;;;1.30;;
20140;SDS011;10231;47.702;9.826;2023-01-16T09:47:15;1.57;;;0.90;;
20140;SDS011;10231;47.702;9.826;2023-01-16T09:49:50;2.50;;;1.37;;
20140;SDS011;10231;47.702;9.826;2023-01-16T09:52:20;1.57;;;1.47;;
20140;SDS011;10231;47.702;9.826;2023-01-16T09:55:24;2.07;;;1.80;;
20140;SDS011;10231;47.702;9.826;2023-01-16T09:58:17;1.33;;;1.23;;
20140;SDS011;10231;47.702;9.826;2023-01-16T10:01:08;1.07;;;1.07;;
20140;SDS011;10231;47.702;9.826;2023-01-16T10:03:37;0.80;;;0.80;;
20140;SDS011;10231;47.702;9.826;2023-01-16T10:08:57;1.10;;;1.00;;
20140;SDS011;10231;47.702;9.826;2023-01-16T10:11:43;1.33;;;0.80;;
20140;SDS011;10231;47.702;9.826;2023-01-16T10:14:19;0.93;;;0.93;;
20140;SDS011;10231;47.702;9.826;2023-01-16T10:17:15;1.23;;;0.87;;
20140;SDS011;10231;47.702;9.826;2023-01-16T10:22:59;0.70;;;0.70;;
20140;SDS011;10231;47.702;9.826;2023-01-16T10:31:10;1.90;;;1.30;;
20140;SDS011;10231;47.702;9.826;2023-01-16T10:36:37;1.57;;;1.33;;
20140;SDS011;10231;47.702;9.826;2023-01-16T10:39:07;1.60;;;1.10;;
20140;SDS011;10231;47.702;9.826;2023-01-16T10:41:37;1.50;;;1.40;;
20140;SDS011;10231;47.702;9.826;2023-01-16T10:44:34;1.30;;;1.20;;
20140;SDS011;10231;47.702;9.826;2023-01-16T10:47:26;1.40;;;1.30;;
20140;SDS011;10231;47.702;9.826;2023-01-16T10:50:12;1.27;;;1.17;;
20140;SDS011;10231;47.702;9.826;2023-01-16T10:52:39;2.00;;;1.53;;
20140;SDS011;10231;47.702;9.826;2023-01-16T10:55:05;2.37;;;1.67;;
20140;SDS011;10231;47.702;9.826;2023-01-16T10:57:32;2.63;;;2.20;;
20140;SDS011;10231;47.702;9.826;2023-01-16T11:00:00;2.50;;;1.40;;
20140;SDS011;10231;47.702;9.826;2023-01-16T11:02:34;2.67;;;1.57;;
20140;SDS011;10231;47.702;9.826;2023-01-16T11:05:27;1.13;;;1.13;;
20140;SDS011;10231;47.702;9.826;2023-01-16T11:08:12;2.43;;;2.07;;
20140;SDS011;10231;47.702;9.826;2023-01-16T11:10:40;1.70;;;1.43;;
20140;SDS011;10231;47.702;9.826;2023-01-16T11:13:12;1.57;;;1.47;;
20140;SDS011;10231;47.702;9.826;2023-01-16T11:18:54;4.17;;;2.33;;
20140;SDS011;10231;47.702;9.826;2023-01-16T11:21:30;2.37;;;2.13;;
20140;SDS011;10231;47.702;9.826;2023-01-16T11:24:42;3.77;;;2.90;;
20140;SDS011;10231;47.702;9.826;2023-01-16T11:26:49;4.77;;;3.10;;
20140;SDS011;10231;47.702;9.826;2023-01-16T11:29:17;3.47;;;3.00;;
20140;SDS011;10231;47.702;9.826;2023-01-16T11:31:57;3.00;;;2.70;;
20140;SDS011;10231;47.702;9.826;2023-01-16T11:34:24;2.60;;;2.40;;
20140;SDS011;10231;47.702;9.826;2023-01-16T11:36:59;3.57;;;1.80;;
20140;SDS011;10231;47.702;9.826;2023-01-16T11:39:31;1.63;;;1.53;;
20140;SDS011;10231;47.702;9.826;2023-01-16T11:42:02;3.77;;;2.03;;
20140;SDS011;10231;47.702;9.826;2023-01-16T11:44:48;1.63;;;1.63;;
20140;SDS011;10231;47.702;9.826;2023-01-16T11:47:39;1.50;;;1.40;;
20140;SDS011;10231;47.702;9.826;2023-01-16T11:52:55;1.80;;;1.40;;
20140;SDS011;10231;47.702;9.826;2023-01-16T11:55:21;6.53;;;3.37;;
20140;SDS011;10231;47.702;9.826;2023-01-16T12:00:54;2.20;;;2.00;;
20140;SDS011;10231;47.702;9.826;2023-01-16T12:03:48;1.60;;;1.50;;
20140;SDS011;10231;47.702;9.826;2023-01-16T12:11:57;1.83;;;1.73;;
20140;SDS011;10231;47.702;9.826;2023-01-16T12:15:14;1.33;;;1.33;;
20140;SDS011;10231;47.702;9.826;2023-01-16T12:18:00;1.90;;;1.70;;
20140;SDS011;10231;47.702;9.826;2023-01-16T12:23:21;2.13;;;1.80;;
20140;SDS011;10231;47.702;9.826;2023-01-16T12:26:07;2.20;;;1.63;;
20140;SDS011;10231;47.702;9.826;2023-01-16T12:34:50;2.73;;;2.27;;
20140;SDS011;10231;47.702;9.826;2023-01-16T12:40:27;2.93;;;1.80;;
20140;SDS011;10231;47.702;9.826;2023-01-16T12:43:26;4.17;;;1.60;;
20140;SDS011;10231;47.702;9.826;2023-01-16T12:46:02;1.70;;;1.37;;
20140;SDS011;10231;47.702;9.826;2023-01-16T12:54:10;1.83;;;1.67;;
20140;SDS011;10231;47.702;9.826;2023-01-16T12:57:43;2.53;;;1.90;;
20140;SDS011;10231;47.702;9.826;2023-01-16T13:05:25;2.10;;;1.90;;
20140;SDS011;10231;47.702;9.826;2023-01-16T13:08:02;2.00;;;1.90;;
20140;SDS011;10231;47.702;9.826;2023-01-16T13:10:33;1.63;;;1.53;;
20140;SDS011;10231;47.702;9.826;2023-01-16T13:13:21;2.37;;;2.17;;
20140;SDS011;10231;47.702;9.826;2023-01-16T13:16:03;3.50;;;2.57;;
20140;SDS011;10231;47.702;9.826;2023-01-16T13:18:39;2.77;;;2.53;;
20140;SDS011;10231;47.702;9.826;2023-01-16T13:21:24;3.27;;;2.40;;
20140;SDS011;10231;47.702;9.826;2023-01-16T13:23:58;4.07;;;2.50;;
20140;SDS011;10231;47.702;9.826;2023-01-16T13:26:37;2.80;;;2.60;;
20140;SDS011;10231;47.702;9.826;2023-01-16T13:31:53;2.63;;;2.43;;
20140;SDS011;10231;47.702;9.826;2023-01-16T13:34:35;2.30;;;2.10;;
20140;SDS011;10231;47.702;9.826;2023-01-16T13:43:23;2.07;;;1.97;;
20140;SDS011;10231;47.702;9.826;2023-01-16T13:46:14;2.27;;;2.07;;
20140;SDS011;10231;47.702;9.826;2023-01-16T13:48:41;1.70;;;1.60;;
20140;SDS011;10231;47.702;9.826;2023-01-16T13:51:13;2.93;;;2.63;;
20140;SDS011;10231;47.702;9.826;2023-01-16T13:53:41;3.77;;;3.07;;
20140;SDS011;10231;47.702;9.826;2023-01-16T13:56:15;5.00;;;3.40;;
20140;SDS011;10231;47.702;9.826;2023-01-16T13:58:48;3.97;;;3.07;;
20140;SDS011;10231;47.702;9.826;2023-01-16T14:06:46;6.43;;;5.03;;
20140;SDS011;10231;47.702;9.826;2023-01-16T14:13:21;2.10;;;1.90;;
20140;SDS011;10231;47.702;9.826;2023-01-16T14:15:26;2.03;;;1.90;;
20140;SDS011;10231;47.702;9.826;2023-01-16T14:24:25;1.90;;;1.80;;
20140;SDS011;10231;47.702;9.826;2023-01-16T14:26:54;2.03;;;1.90;;
20140;SDS011;10231;47.702;9.826;2023-01-16T14:31:55;2.57;;;1.90;;
20140;SDS011;10231;47.702;9.826;2023-01-16T14:39:48;3.03;;;2.20;;
20140;SDS011;10231;47.702;9.826;2023-01-16T14:45:24;3.20;;;2.90;;
20140;SDS011;10231;47.702;9.826;2023-01-16T14:57:25;4.47;;;2.73;;
20140;SDS011;10231;47.702;9.826;2023-01-16T15:02:31;3.20;;;3.00;;
20140;SDS011;10231;47.702;9.826;2023-01-16T15:07:35;6.77;;;4.77;;
20140;SDS011;10231;47.702;9.826;2023-01-16T15:10:49;5.37;;;4.20;;
20140;SDS011;10231;47.702;9.826;2023-01-16T15:13:18;3.00;;;2.80;;
20140;SDS011;10231;47.702;9.826;2023-01-16T15:15:54;2.80;;;2.60;;
20140;SDS011;10231;47.702;9.826;2023-01-16T15:18:24;4.90;;;3.47;;
20140;SDS011;10231;47.702;9.826;2023-01-16T15:21:13;2.80;;;2.60;;
20140;SDS011;10231;47.702;9.826;2023-01-16T15:24:04;2.70;;;2.50;;
20140;SDS011;10231;47.702;9.826;2023-01-16T15:32:24;2.97;;;2.20;;
20140;SDS011;10231;47.702;9.826;2023-01-16T15:35:03;2.83;;;2.33;;
20140;SDS011;10231;47.702;9.826;2023-01-16T15:37:47;4.97;;;2.70;;
20140;SDS011;10231;47.702;9.826;2023-01-16T15:40:27;2.87;;;2.67;;
20140;SDS011;10231;47.702;9.826;2023-01-16T15:42:54;4.03;;;3.33;;
20140;SDS011;10231;47.702;9.826;2023-01-16T15:45:44;2.97;;;2.77;;
20140;SDS011;10231;47.702;9.826;2023-01-16T15:48:42;3.80;;;2.83;;
20140;SDS011;10231;47.702;9.826;2023-01-16T15:51:19;3.37;;;3.07;;
20140;SDS011;10231;47.702;9.826;2023-01-16T15:53:46;3.70;;;3.33;;
20140;SDS011;10231;47.702;9.826;2023-01-16T15:56:20;4.27;;;3.87;;
20140;SDS011;10231;47.702;9.826;2023-01-16T15:58:48;4.27;;;3.40;;
20140;SDS011;10231;47.702;9.826;2023-01-16T16:01:26;3.03;;;2.73;;
20140;SDS011;10231;47.702;9.826;2023-01-16T16:03:56;5.63;;;3.03;;
20140;SDS011;10231;47.702;9.826;2023-01-16T16:06:23;3.37;;;3.07;;
20140;SDS011;10231;47.702;9.826;2023-01-16T16:08:51;2.97;;;2.73;;
20140;SDS011;10231;47.702;9.826;2023-01-16T16:11:19;3.10;;;2.90;;
20140;SDS011;10231;47.702;9.826;2023-01-16T16:14:05;2.43;;;2.27;;
20140;SDS011;10231;47.702;9.826;2023-01-16T16:17:01;2.53;;;2.33;;
20140;SDS011;10231;47.702;9.826;2023-01-16T16:19:47;4.90;;;4.20;;
20140;SDS011;10231;47.702;9.826;2023-01-16T16:22:13;5.73;;;4.60;;
20140;SDS011;10231;47.702;9.826;2023-01-16T16:25:25;5.90;;;5.30;;
20140;SDS011;10231;47.702;9.826;2023-01-16T16:27:55;6.87;;;6.17;;
20140;SDS011;10231;47.702;9.826;2023-01-16T16:30:27;5.27;;;4.17;;
20140;SDS011;10231;47.702;9.826;2023-01-16T16:32:54;3.63;;;3.23;;
20140;SDS011;10231;47.702;9.826;2023-01-16T16:35:26;4.83;;;3.27;;
20140;SDS011;10231;47.702;9.826;2023-01-16T16:37:58;3.07;;;2.80;;
20140;SDS011;10231;47.702;9.826;2023-01-16T16:40:25;3.93;;;3.63;;
20140;SDS011;10231;47.702;9.826;2023-01-16T16:42:55;4.10;;;3.20;;
20140;SDS011;10231;47.702;9.826;2023-01-16T16:45:29;2.53;;;1.87;;
20140;SDS011;10231;47.702;9.826;2023-01-16T16:50:43;1.80;;;1.47;;
20140;SDS011;10231;47.702;9.826;2023-01-16T16:53:11;3.10;;;2.00;;
20140;SDS011;10231;47.702;9.826;2023-01-16T16:55:42;2.23;;;1.90;;
20140;SDS011;10231;47.702;9.826;2023-01-16T16:58:15;2.20;;;2.10;;
20140;SDS011;10231;47.702;9.826;2023-01-16T17:00:46;3.00;;;2.03;;
20140;SDS011;10231;47.702;9.826;2023-01-16T17:03:16;1.93;;;1.60;;
20140;SDS011;10231;47.702;9.826;2023-01-16T17:05:44;2.80;;;1.90;;
20140;SDS011;10231;47.702;9.826;2023-01-16T17:08:15;2.00;;;1.40;;
20140;SDS011;10231;47.702;9.826;2023-01-16T17:10:55;3.47;;;1.73;;
20140;SDS011;10231;47.702;9.826;2023-01-16T17:13:22;1.40;;;1.30;;
20140;SDS011;10231;47.702;9.826;2023-01-16T17:15:50;0.90;;;0.90;;
20140;SDS011;10231;47.702;9.826;2023-01-16T17:18:18;1.60;;;1.20;;
20140;SDS011;10231;47.702;9.826;2023-01-16T17:20:44;1.53;;;1.43;;
20140;SDS011;10231;47.702;9.826;2023-01-16T17:23:15;2.10;;;0.67;;
20140;SDS011;10231;47.702;9.826;2023-01-16T17:25:41;2.50;;;1.43;;
20140;SDS011;10231;47.702;9.826;2023-01-16T17:28:08;1.63;;;1.53;;
20140;SDS011;10231;47.702;9.826;2023-01-16T17:30:34;1.90;;;1.80;;
20140;SDS011;10231;47.702;9.826;2023-01-16T17:33:05;1.83;;;1.73;;
20140;SDS011;10231;47.702;9.826;2023-01-16T17:35:41;1.37;;;1.10;;
20140;SDS011;10231;47.702;9.826;2023-01-16T17:38:12;1.00;;;0.93;;
20140;SDS011;10231;47.702;9.826;2023-01-16T17:40:42;1.10;;;0.80;;
20140;SDS011;10231;47.702;9.826;2023-01-16T17:43:12;1.20;;;0.70;;
20140;SDS011;10231;47.702;9.826;2023-01-16T17:46:02;1.70;;;0.70;;
20140;SDS011;10231;47.702;9.826;2023-01-16T17:48:34;0.77;;;0.77;;
20140;SDS011;10231;47.702;9.826;2023-01-16T17:51:01;0.80;;;0.80;;